Time;durP1;ratioP1;P1;durP2;ratioP2;P2;SDS_P1;SDS_P2;PMS_P1;PMS_P2;Temp;Humidity;BMP_temperature;BMP_pressure;BME280_temperature;BME280_humidity;BME280_pressure;Samples;Min_cycle;Max_cycle;Signal;HPM_P1;HPM_P2
2021/06/06 00:01:18;;;;;;;4.72;1.42;;;11.80;99.90;;;;;;5067979;28;20406;-85
2021/06/06 00:03:49;;;;;;;2.63;1.15;;;11.80;99.90;;;;;;5063517;28;20397;-84
2021/06/06 00:06:23;;;;;;;3.45;1.45;;;11.80;99.90;;;;;;5064686;28;20397;-83
2021/06/06 00:08:51;;;;;;;4.80;1.70;;;11.80;99.90;;;;;;5066708;28;20386;-84
2021/06/06 00:11:23;;;;;;;4.37;1.17;;;11.90;99.90;;;;;;5050391;28;20453;-85
2021/06/06 00:13:52;;;;;;;5.15;1.45;;;12.10;99.90;;;;;;5064220;28;20405;-83
2021/06/06 00:16:25;;;;;;;4.82;1.17;;;12.40;99.90;;;;;;5070282;28;20378;-83
2021/06/06 00:18:52;;;;;;;3.45;1.48;;;12.80;99.90;;;;;;5065299;28;20735;-86
2021/06/06 00:21:21;;;;;;;6.05;1.63;;;13.00;99.90;;;;;;5050213;28;20376;-84
2021/06/06 00:23:48;;;;;;;6.18;1.38;;;13.10;99.90;;;;;;5063482;28;20393;-83
2021/06/06 00:26:15;;;;;;;3.30;1.40;;;13.10;99.90;;;;;;5070067;28;20374;-84
2021/06/06 00:28:42;;;;;;;2.67;1.47;;;13.20;99.90;;;;;;5069840;28;20870;-85
2021/06/06 00:31:10;;;;;;;7.38;1.70;;;13.10;99.90;;;;;;5068679;28;20370;-83
2021/06/06 00:33:38;;;;;;;3.00;1.30;;;13.00;99.90;;;;;;5057695;28;20431;-83
2021/06/06 00:36:08;;;;;;;2.95;1.30;;;12.80;99.90;;;;;;5049804;28;20471;-84
2021/06/06 00:38:35;;;;;;;4.13;1.80;;;12.80;99.90;;;;;;5050978;28;20388;-84
2021/06/06 00:41:03;;;;;;;3.00;1.35;;;12.70;99.90;;;;;;5061337;28;20439;-83
2021/06/06 00:43:31;;;;;;;4.50;1.63;;;12.60;99.90;;;;;;5069798;28;20378;-83
2021/06/06 00:45:58;;;;;;;3.03;1.20;;;12.60;99.90;;;;;;5069900;28;20374;-84
2021/06/06 00:48:25;;;;;;;2.03;1.17;;;12.70;99.90;;;;;;5069451;28;20383;-83
2021/06/06 00:50:56;;;;;;;5.28;1.20;;;12.70;99.90;;;;;;5061973;28;20433;-83
2021/06/06 00:53:46;;;;;;;5.13;1.13;;;12.80;99.90;;;;;;5053718;28;20399;-82
2021/06/06 00:56:20;;;;;;;4.22;1.70;;;12.90;99.90;;;;;;5052402;28;20382;-83
2021/06/06 00:58:50;;;;;;;5.70;1.20;;;13.00;99.90;;;;;;5069176;28;20378;-83
2021/06/06 01:01:18;;;;;;;3.67;1.08;;;13.10;99.90;;;;;;5067688;28;20855;-84
2021/06/06 01:03:48;;;;;;;3.53;1.23;;;13.10;99.90;;;;;;5066473;28;20412;-83
2021/06/06 01:06:22;;;;;;;3.75;1.02;;;13.20;99.90;;;;;;5048697;28;20466;-81
2021/06/06 01:08:49;;;;;;;3.58;0.80;;;13.20;99.90;;;;;;5063932;28;20403;-83
2021/06/06 01:11:27;;;;;;;3.45;0.90;;;13.30;99.90;;;;;;5059365;28;20402;-83
2021/06/06 01:14:02;;;;;;;3.13;0.80;;;13.30;99.90;;;;;;5064378;28;20476;-83
2021/06/06 01:17:04;;;;;;;4.00;1.15;;;13.30;99.90;;;;;;5050329;28;20399;-83
2021/06/06 01:19:34;;;;;;;5.00;0.85;;;13.40;99.90;;;;;;5055914;28;20776;-83
2021/06/06 01:22:27;;;;;;;1.63;0.82;;;13.40;99.90;;;;;;5068401;28;20467;-84
2021/06/06 01:25:04;;;;;;;2.75;0.90;;;13.50;99.90;;;;;;5068878;28;20919;-82
2021/06/06 01:27:35;;;;;;;1.60;0.68;;;13.60;99.90;;;;;;5069054;28;20366;-81
2021/06/06 01:30:08;;;;;;;2.23;0.97;;;13.70;99.90;;;;;;5068245;28;20673;-83
2021/06/06 01:32:52;;;;;;;2.73;0.90;;;13.80;99.90;;;;;;5060115;28;20397;-83
2021/06/06 01:35:44;;;;;;;2.60;0.90;;;13.90;99.90;;;;;;5067372;28;20406;-85
2021/06/06 01:38:21;;;;;;;3.13;1.05;;;13.90;98.90;;;;;;5038025;28;20380;-84
2021/06/06 01:40:53;;;;;;;2.10;0.85;;;14.00;97.80;;;;;;5056529;28;20485;-83
2021/06/06 01:43:25;;;;;;;5.57;0.98;;;14.10;98.80;;;;;;5062396;28;20476;-82
2021/06/06 01:46:05;;;;;;;7.55;0.90;;;14.10;98.90;;;;;;5058369;28;20392;-84
2021/06/06 01:48:36;;;;;;;2.20;0.82;;;14.20;97.70;;;;;;5062822;28;20398;-85
2021/06/06 01:51:08;;;;;;;2.70;0.70;;;14.20;98.60;;;;;;5057911;28;20398;-84
2021/06/06 01:53:37;;;;;;;2.57;0.70;;;14.20;99.00;;;;;;5048732;28;20442;-84
2021/06/06 01:56:06;;;;;;;3.17;0.82;;;14.20;98.70;;;;;;5048914;28;20474;-82
2021/06/06 01:58:35;;;;;;;2.75;0.82;;;14.30;98.30;;;;;;5052488;28;20741;-83
2021/06/06 02:01:16;;;;;;;1.60;0.80;;;14.30;98.60;;;;;;5068294;28;20473;-82
2021/06/06 02:03:44;;;;;;;3.38;1.00;;;14.40;98.00;;;;;;5066891;28;20378;-82
2021/06/06 02:06:14;;;;;;;3.85;0.93;;;14.40;96.60;;;;;;5048746;28;20372;-84
2021/06/06 02:08:46;;;;;;;3.08;0.90;;;14.50;97.00;;;;;;5056041;28;20856;-83
2021/06/06 02:11:39;;;;;;;4.55;0.75;;;14.70;97.90;;;;;;5051763;28;20474;-83
2021/06/06 02:14:11;;;;;;;4.65;0.70;;;14.80;97.70;;;;;;5050439;28;20402;-83
2021/06/06 02:16:45;;;;;;;3.33;0.70;;;14.90;97.10;;;;;;5068708;28;20409;-84
2021/06/06 02:19:12;;;;;;;2.00;0.70;;;15.00;96.00;;;;;;5069571;28;20362;-82
2021/06/06 02:21:41;;;;;;;2.72;1.13;;;15.00;96.90;;;;;;5067847;28;20397;-82
2021/06/06 02:24:08;;;;;;;9.87;2.13;;;15.10;97.20;;;;;;5058272;28;20760;-82
2021/06/06 02:26:38;;;;;;;3.05;0.73;;;15.20;97.80;;;;;;5062517;28;20397;-81
2021/06/06 02:29:32;;;;;;;2.78;1.00;;;15.20;96.20;;;;;;5070692;28;20402;-81
2021/06/06 02:32:07;;;;;;;3.27;0.80;;;15.20;95.60;;;;;;5053271;28;20390;-83
2021/06/06 02:34:52;;;;;;;4.05;1.38;;;15.30;96.30;;;;;;5069206;28;20490;-82
2021/06/06 02:37:24;;;;;;;1.80;0.70;;;15.30;94.40;;;;;;5069451;28;20469;-82
2021/06/06 02:40:06;;;;;;;2.25;0.68;;;15.30;95.00;;;;;;5065422;28;20400;-81
2021/06/06 02:42:39;;;;;;;3.67;0.73;;;15.30;95.30;;;;;;5058964;28;20378;-82
2021/06/06 02:45:16;;;;;;;2.22;0.70;;;15.30;95.80;;;;;;5063573;28;20443;-83
2021/06/06 02:47:45;;;;;;;4.18;0.93;;;15.40;96.10;;;;;;5059456;28;20378;-81
2021/06/06 02:50:29;;;;;;;1.53;0.63;;;15.40;94.60;;;;;;5059232;28;20535;-81
2021/06/06 02:53:22;;;;;;;1.60;0.63;;;15.40;95.40;;;;;;5063725;28;20415;-82
2021/06/06 02:56:00;;;;;;;5.18;0.90;;;15.50;95.50;;;;;;5060145;28;20416;-83
2021/06/06 02:58:35;;;;;;;3.30;0.70;;;15.50;95.40;;;;;;5068005;28;20374;-82
2021/06/06 03:01:07;;;;;;;3.70;0.93;;;15.60;95.40;;;;;;5070995;28;20400;-82
2021/06/06 03:03:37;;;;;;;1.90;0.60;;;15.60;94.90;;;;;;5070586;28;20412;-82
2021/06/06 03:06:11;;;;;;;3.20;0.70;;;15.60;94.40;;;;;;5059154;28;20390;-82
2021/06/06 03:08:39;;;;;;;2.13;0.60;;;15.60;94.30;;;;;;5060935;28;20404;-81
2021/06/06 03:11:08;;;;;;;1.40;0.60;;;15.70;94.50;;;;;;5056104;28;20394;-82
2021/06/06 03:13:52;;;;;;;0.90;0.57;;;15.70;94.90;;;;;;5058759;28;20465;-81
2021/06/06 03:16:20;;;;;;;2.40;0.70;;;15.70;95.40;;;;;;5062083;28;20394;-83
2021/06/06 03:18:51;;;;;;;2.37;0.70;;;15.80;94.40;;;;;;5063473;28;20394;-82
2021/06/06 03:21:24;;;;;;;1.95;0.50;;;15.80;94.50;;;;;;5059995;28;20473;-82
2021/06/06 03:24:20;;;;;;;3.22;0.60;;;15.80;95.30;;;;;;5071295;28;20374;-82
2021/06/06 03:26:50;;;;;;;1.30;0.60;;;15.90;93.60;;;;;;5063352;28;20392;-81
2021/06/06 03:29:22;;;;;;;2.13;0.70;;;16.00;93.90;;;;;;5059058;28;20407;-81
2021/06/06 03:32:06;;;;;;;1.10;0.55;;;16.00;94.10;;;;;;5056332;28;20388;-82
2021/06/06 03:34:36;;;;;;;2.67;0.50;;;16.00;92.90;;;;;;5065026;28;20401;-82
2021/06/06 03:37:04;;;;;;;1.90;0.65;;;16.00;93.10;;;;;;5053036;28;20406;-82
2021/06/06 03:39:31;;;;;;;2.90;0.80;;;16.00;93.30;;;;;;5067141;28;20408;-82
2021/06/06 03:42:00;;;;;;;1.42;0.63;;;16.00;93.80;;;;;;5070606;28;20876;-82
2021/06/06 03:44:28;;;;;;;2.97;0.80;;;16.00;94.30;;;;;;5068120;28;20410;-81
2021/06/06 03:46:57;;;;;;;1.98;0.82;;;16.00;95.20;;;;;;5071268;28;20428;-81
2021/06/06 03:49:25;;;;;;;2.53;0.82;;;16.10;95.20;;;;;;5068604;28;20482;-81
2021/06/06 03:51:52;;;;;;;3.25;0.88;;;16.10;95.00;;;;;;5067093;28;20390;-81
2021/06/06 03:54:20;;;;;;;2.10;0.70;;;16.20;94.10;;;;;;5067801;28;20410;-80
2021/06/06 03:56:48;;;;;;;2.25;0.65;;;16.30;92.50;;;;;;5069782;28;20382;-80
2021/06/06 03:59:17;;;;;;;2.05;0.77;;;16.30;93.00;;;;;;5070270;28;20457;-81
2021/06/06 04:01:45;;;;;;;1.65;0.40;;;16.30;92.90;;;;;;5066498;28;20390;-81
2021/06/06 04:04:12;;;;;;;1.48;0.70;;;16.30;92.60;;;;;;5062270;28;20413;-80
2021/06/06 04:06:39;;;;;;;2.77;0.67;;;16.20;93.00;;;;;;5054387;28;20395;-81
2021/06/06 04:09:08;;;;;;;2.20;0.70;;;16.20;92.90;;;;;;5060109;28;20404;-81
2021/06/06 04:11:36;;;;;;;2.70;0.70;;;16.10;93.10;;;;;;5057331;28;20372;-80
2021/06/06 04:14:04;;;;;;;2.20;0.50;;;16.20;93.00;;;;;;5052494;28;20445;-82
2021/06/06 04:16:31;;;;;;;3.25;0.60;;;16.10;92.70;;;;;;5065098;28;20915;-80
2021/06/06 04:18:59;;;;;;;1.73;0.50;;;16.00;92.80;;;;;;5067181;28;20390;-80
2021/06/06 04:21:29;;;;;;;2.47;0.60;;;16.00;93.00;;;;;;5055832;28;20408;-81
2021/06/06 04:23:56;;;;;;;2.15;0.57;;;16.00;93.30;;;;;;5054445;28;20381;-81
2021/06/06 04:26:24;;;;;;;2.03;0.60;;;16.00;93.40;;;;;;5067140;28;20803;-82
2021/06/06 04:28:58;;;;;;;1.40;0.50;;;16.00;93.20;;;;;;5068360;28;20386;-81
2021/06/06 04:31:26;;;;;;;2.35;0.60;;;16.00;93.60;;;;;;5059652;28;20388;-82
2021/06/06 04:33:53;;;;;;;1.50;0.60;;;16.00;93.70;;;;;;5065803;28;20764;-82
2021/06/06 04:36:21;;;;;;;1.65;0.55;;;16.00;93.50;;;;;;5068952;28;20884;-85
2021/06/06 04:38:50;;;;;;;1.60;0.50;;;16.00;93.70;;;;;;5069164;28;20494;-82
2021/06/06 04:41:17;;;;;;;1.80;0.50;;;15.90;93.80;;;;;;5067155;28;20425;-84
2021/06/06 04:43:44;;;;;;;1.48;0.57;;;15.90;93.90;;;;;;5049776;28;20380;-81
2021/06/06 04:46:14;;;;;;;0.85;0.40;;;15.90;92.40;;;;;;5050850;28;20997;-82
2021/06/06 04:49:02;;;;;;;1.00;0.40;;;15.90;92.60;;;;;;5061816;28;20741;-83
2021/06/06 04:51:29;;;;;;;2.00;0.50;;;16.10;91.80;;;;;;5058499;28;20398;-82
2021/06/06 04:53:56;;;;;;;2.03;0.50;;;16.10;92.60;;;;;;5067373;28;20442;-82
2021/06/06 04:56:25;;;;;;;2.30;0.50;;;16.00;93.00;;;;;;5066281;28;20464;-83
2021/06/06 04:58:54;;;;;;;2.93;0.70;;;15.90;93.70;;;;;;5068837;28;20435;-83
2021/06/06 05:01:21;;;;;;;3.08;0.70;;;15.80;93.40;;;;;;5061046;28;20430;-82
2021/06/06 05:03:48;;;;;;;1.70;0.60;;;15.70;93.90;;;;;;5062942;28;20769;-83
2021/06/06 05:06:21;;;;;;;3.67;0.50;;;15.70;94.30;;;;;;5063527;28;21383;-83
2021/06/06 05:08:48;;;;;;;2.80;0.68;;;15.70;94.40;;;;;;5053689;28;20402;-82
2021/06/06 05:11:15;;;;;;;1.33;0.50;;;15.70;92.80;;;;;;5067594;28;20371;-83
2021/06/06 05:13:42;;;;;;;1.93;0.63;;;15.60;93.90;;;;;;5064551;28;20412;-80
2021/06/06 05:16:09;;;;;;;1.13;0.50;;;15.60;94.80;;;;;;5062615;28;20410;-81
2021/06/06 05:18:37;;;;;;;1.30;0.52;;;15.50;95.50;;;;;;5059203;28;20741;-82
2021/06/06 05:21:05;;;;;;;1.92;0.50;;;15.40;95.60;;;;;;5058671;28;20405;-81
2021/06/06 05:23:33;;;;;;;3.25;0.63;;;15.40;95.10;;;;;;5068285;28;20382;-80
2021/06/06 05:26:01;;;;;;;0.93;0.35;;;15.40;95.20;;;;;;5052178;28;20489;-81
2021/06/06 05:28:30;;;;;;;4.97;0.68;;;15.40;94.20;;;;;;5067794;28;20393;-81
2021/06/06 05:30:58;;;;;;;2.60;0.40;;;15.40;93.70;;;;;;5067124;28;20386;-83
2021/06/06 05:33:27;;;;;;;5.75;0.70;;;15.40;93.60;;;;;;5060756;28;20395;-80
2021/06/06 05:35:55;;;;;;;2.30;0.70;;;15.40;94.00;;;;;;5064691;28;20469;-81
2021/06/06 05:38:25;;;;;;;2.28;0.77;;;15.30;95.10;;;;;;5052392;28;20391;-82
2021/06/06 05:40:52;;;;;;;1.98;0.60;;;15.20;94.50;;;;;;5058981;28;20457;-81
2021/06/06 05:43:20;;;;;;;2.80;0.73;;;15.20;94.80;;;;;;5057222;28;20399;-82
2021/06/06 05:45:48;;;;;;;1.58;0.47;;;15.20;94.60;;;;;;5068409;28;20424;-82
2021/06/06 05:48:17;;;;;;;3.03;0.50;;;15.10;95.20;;;;;;5067668;28;20396;-82
2021/06/06 05:50:47;;;;;;;1.53;0.53;;;15.10;95.10;;;;;;5066769;28;20913;-83
2021/06/06 05:53:15;;;;;;;1.65;0.60;;;15.00;95.50;;;;;;5069554;28;20436;-83
2021/06/06 05:55:44;;;;;;;1.63;0.57;;;14.90;96.10;;;;;;5061104;28;20740;-82
2021/06/06 05:58:13;;;;;;;2.42;0.80;;;14.80;96.70;;;;;;5053283;28;20375;-82
2021/06/06 06:00:43;;;;;;;2.63;0.70;;;14.70;97.00;;;;;;5067187;28;20402;-82
2021/06/06 06:03:11;;;;;;;1.80;0.50;;;14.70;97.00;;;;;;5061981;28;20874;-82
2021/06/06 06:05:39;;;;;;;0.77;0.50;;;14.60;97.30;;;;;;5060370;28;20406;-82
2021/06/06 06:08:42;;;;;;;1.40;0.70;;;14.50;96.80;;;;;;5062781;28;20747;-82
2021/06/06 06:11:12;;;;;;;1.10;0.60;;;14.50;96.60;;;;;;4990682;28;20396;-82
2021/06/06 06:13:41;;;;;;;2.92;0.80;;;14.50;96.80;;;;;;5042473;28;20396;-82
2021/06/06 06:16:10;;;;;;;2.78;0.50;;;14.40;97.30;;;;;;5052795;28;20885;-82
2021/06/06 06:18:38;;;;;;;2.70;0.63;;;14.30;97.60;;;;;;5066494;28;20377;-82
2021/06/06 06:21:08;;;;;;;2.05;0.60;;;14.20;98.30;;;;;;5072385;28;20393;-82
2021/06/06 06:23:35;;;;;;;0.93;0.65;;;14.20;99.20;;;;;;5061328;28;20396;-81
2021/06/06 06:26:03;;;;;;;1.42;0.60;;;14.10;99.90;;;;;;5052422;28;20445;-82
2021/06/06 06:28:30;;;;;;;3.60;0.65;;;14.00;99.90;;;;;;5064785;28;20389;-81
2021/06/06 06:30:57;;;;;;;2.22;0.63;;;14.00;99.90;;;;;;5072318;28;20374;-82
2021/06/06 06:33:24;;;;;;;2.50;0.60;;;13.80;99.90;;;;;;5072162;28;20385;-82
2021/06/06 06:35:52;;;;;;;1.88;0.70;;;13.80;99.90;;;;;;5072428;28;21190;-82
2021/06/06 06:38:20;;;;;;;3.20;1.13;;;13.70;99.90;;;;;;5061251;28;20738;-82
2021/06/06 06:40:47;;;;;;;3.03;2.72;;;13.60;99.90;;;;;;5051894;28;20393;-81
2021/06/06 06:43:14;;;;;;;3.57;1.70;;;13.50;99.90;;;;;;5057716;28;20439;-80
2021/06/06 06:45:43;;;;;;;2.15;1.90;;;13.40;99.90;;;;;;5064649;28;21503;-82
2021/06/06 06:48:15;;;;;;;4.03;2.88;;;13.40;99.90;;;;;;5067191;28;20955;-81
2021/06/06 06:50:42;;;;;;;3.58;1.90;;;13.30;99.90;;;;;;5068640;28;20483;-82
2021/06/06 06:53:10;;;;;;;3.03;1.73;;;13.20;99.90;;;;;;5071347;28;20393;-81
2021/06/06 06:55:37;;;;;;;9.60;7.85;;;13.10;99.90;;;;;;5071468;28;20485;-80
2021/06/06 06:58:06;;;;;;;6.00;5.20;;;13.00;99.90;;;;;;5066615;28;20378;-80
2021/06/06 07:00:37;;;;;;;2.38;1.73;;;13.00;99.90;;;;;;5056213;28;20379;-82
2021/06/06 07:03:05;;;;;;;2.80;1.60;;;12.90;99.90;;;;;;5059995;28;20730;-82
2021/06/06 07:05:32;;;;;;;2.88;1.23;;;12.90;99.90;;;;;;5065884;28;20394;-83
2021/06/06 07:07:59;;;;;;;2.92;1.38;;;12.90;99.90;;;;;;5058761;28;20687;-82
2021/06/06 07:10:29;;;;;;;2.88;1.33;;;12.90;99.90;;;;;;5071575;28;20374;-82
2021/06/06 07:12:57;;;;;;;3.03;1.53;;;12.80;99.90;;;;;;5065945;28;20402;-82
2021/06/06 07:15:24;;;;;;;4.32;2.30;;;12.80;99.90;;;;;;5065823;28;20445;-83
2021/06/06 07:17:51;;;;;;;4.90;2.60;;;12.70;99.90;;;;;;5071158;28;20872;-82
2021/06/06 07:20:24;;;;;;;3.33;1.88;;;12.60;99.90;;;;;;5063190;28;20467;-83
2021/06/06 07:22:52;;;;;;;4.75;2.58;;;12.50;99.90;;;;;;5066187;28;20428;-83
2021/06/06 07:25:21;;;;;;;5.88;2.60;;;12.30;99.90;;;;;;5066987;28;20391;-84
2021/06/06 07:27:48;;;;;;;7.43;4.60;;;12.20;99.90;;;;;;5060122;28;20830;-83
2021/06/06 07:30:19;;;;;;;8.67;7.60;;;12.20;99.90;;;;;;5070472;28;20404;-83
2021/06/06 07:32:46;;;;;;;8.82;6.72;;;12.10;99.90;;;;;;5069736;28;20403;-83
2021/06/06 07:35:14;;;;;;;7.35;4.93;;;12.10;99.90;;;;;;5066856;28;20409;-82
2021/06/06 07:37:42;;;;;;;4.70;3.35;;;12.20;99.90;;;;;;5069899;28;20390;-83
2021/06/06 07:40:11;;;;;;;4.68;2.40;;;12.20;99.90;;;;;;5070683;28;20926;-84
2021/06/06 07:42:38;;;;;;;3.10;2.20;;;12.20;99.90;;;;;;5060118;28;20426;-84
2021/06/06 07:45:07;;;;;;;5.13;2.78;;;12.30;99.90;;;;;;5053639;28;20388;-84
2021/06/06 07:47:35;;;;;;;4.70;2.40;;;12.30;99.90;;;;;;5051158;28;20786;-83
2021/06/06 07:50:03;;;;;;;3.38;2.55;;;12.30;99.90;;;;;;5062897;28;20748;-83
2021/06/06 07:52:35;;;;;;;4.53;2.75;;;12.30;99.90;;;;;;5060481;28;20379;-83
2021/06/06 07:55:06;;;;;;;6.70;2.80;;;12.40;99.90;;;;;;5064469;28;20474;-82
2021/06/06 07:57:33;;;;;;;4.57;3.38;;;12.30;99.90;;;;;;5053866;28;20473;-83
2021/06/06 08:00:00;;;;;;;4.55;3.10;;;12.30;99.90;;;;;;5068881;28;20426;-83
2021/06/06 08:02:27;;;;;;;5.88;3.22;;;12.20;99.90;;;;;;5070556;28;20416;-83
2021/06/06 08:04:54;;;;;;;7.00;3.90;;;12.00;99.90;;;;;;5052933;28;20396;-85
2021/06/06 08:07:22;;;;;;;6.30;3.83;;;11.90;99.90;;;;;;5059737;28;20749;-83
2021/06/06 08:09:49;;;;;;;6.78;4.00;;;11.80;99.90;;;;;;5073792;28;20394;-82
2021/06/06 08:12:16;;;;;;;6.32;4.80;;;11.70;99.90;;;;;;5069432;28;20401;-83
2021/06/06 08:14:42;;;;;;;7.55;4.45;;;11.60;99.90;;;;;;5069692;28;20459;-83
2021/06/06 08:17:09;;;;;;;7.93;4.85;;;11.50;99.90;;;;;;5053602;28;20379;-83
2021/06/06 08:19:36;;;;;;;7.97;4.60;;;11.50;99.90;;;;;;5050348;28;20371;-84
2021/06/06 08:22:04;;;;;;;7.22;4.63;;;11.50;99.90;;;;;;5055802;28;20494;-84
2021/06/06 08:24:31;;;;;;;8.15;4.30;;;11.50;99.90;;;;;;5070159;28;20749;-84
2021/06/06 08:26:58;;;;;;;7.50;4.00;;;11.50;99.90;;;;;;5069288;28;20427;-84
2021/06/06 08:29:25;;;;;;;6.05;3.58;;;11.60;99.90;;;;;;5068451;28;20397;-84
2021/06/06 08:31:52;;;;;;;9.77;3.38;;;11.70;99.90;;;;;;5053592;28;20395;-85
2021/06/06 08:34:21;;;;;;;5.38;3.35;;;11.80;99.90;;;;;;5049859;28;20403;-83
2021/06/06 08:36:49;;;;;;;6.72;3.10;;;11.70;99.90;;;;;;5066131;28;20769;-83
2021/06/06 08:39:20;;;;;;;5.27;3.43;;;11.70;99.90;;;;;;5067186;28;20387;-82
2021/06/06 08:42:30;;;;;;;4.55;3.13;;;11.70;99.90;;;;;;5068108;28;20401;-83
2021/06/06 08:45:13;;;;;;;5.78;3.38;;;11.70;99.90;;;;;;5062867;28;20421;-82
2021/06/06 08:47:41;;;;;;;5.53;3.33;;;11.70;99.90;;;;;;5063145;28;20538;-81
2021/06/06 08:50:19;;;;;;;6.15;3.45;;;11.60;99.90;;;;;;5058001;28;20389;-82
2021/06/06 08:53:21;;;;;;;4.13;3.15;;;11.50;99.90;;;;;;5057336;28;20441;-82
2021/06/06 08:56:20;;;;;;;5.50;3.42;;;11.50;99.90;;;;;;5032161;28;20423;-82
2021/06/06 08:58:56;;;;;;;7.50;3.63;;;11.40;99.90;;;;;;5056074;28;20873;-82
2021/06/06 09:01:23;;;;;;;7.32;3.70;;;11.40;99.90;;;;;;5067338;28;20390;-83
2021/06/06 09:03:51;;;;;;;4.70;3.55;;;11.30;99.90;;;;;;5056767;28;20393;-81
2021/06/06 09:06:28;;;;;;;7.57;4.88;;;11.20;99.90;;;;;;5062986;28;20378;-81
2021/06/06 09:08:55;;;;;;;6.82;5.03;;;11.20;99.90;;;;;;5069743;28;20397;-82
2021/06/06 09:11:24;;;;;;;7.88;4.40;;;11.20;99.90;;;;;;5069556;28;20947;-81
2021/06/06 09:13:51;;;;;;;8.93;5.57;;;11.20;99.90;;;;;;5069102;28;20426;-82
2021/06/06 09:16:25;;;;;;;8.88;5.25;;;11.20;99.90;;;;;;5070335;28;20386;-81
2021/06/06 09:19:10;;;;;;;8.82;5.88;;;11.10;99.90;;;;;;5066168;28;20741;-81
2021/06/06 09:21:53;;;;;;;9.75;6.60;;;11.10;99.90;;;;;;5063443;28;20394;-81
2021/06/06 09:24:34;;;;;;;11.18;7.10;;;11.00;99.90;;;;;;5063335;28;20417;-81
2021/06/06 09:27:22;;;;;;;9.00;6.30;;;11.00;99.90;;;;;;5047889;28;20873;-81
2021/06/06 09:30:10;;;;;;;8.37;5.90;;;10.90;99.90;;;;;;5058077;28;20395;-81
2021/06/06 09:32:37;;;;;;;10.32;6.65;;;10.80;99.90;;;;;;5060659;28;20448;-81
2021/06/06 09:35:16;;;;;;;11.85;7.47;;;10.70;99.90;;;;;;5061778;28;20548;-81
2021/06/06 09:37:55;;;;;;;8.98;6.90;;;10.60;99.90;;;;;;5051393;28;20399;-81
2021/06/06 09:40:37;;;;;;;8.20;6.40;;;10.50;99.90;;;;;;5046082;28;20390;-80
2021/06/06 09:43:05;;;;;;;9.30;6.03;;;10.50;99.90;;;;;;5057774;28;20394;-81
2021/06/06 09:45:41;;;;;;;8.35;5.78;;;10.40;99.90;;;;;;5058654;28;20496;-81
2021/06/06 09:48:15;;;;;;;9.40;6.50;;;10.60;99.90;;;;;;5054974;28;20402;-81
2021/06/06 09:50:48;;;;;;;9.23;6.17;;;10.70;99.90;;;;;;5062249;28;20425;-80
2021/06/06 09:53:21;;;;;;;8.45;6.95;;;10.70;99.90;;;;;;5054090;28;20469;-80
2021/06/06 09:55:49;;;;;;;8.27;5.60;;;10.80;99.90;;;;;;5061040;28;20456;-81
2021/06/06 09:58:31;;;;;;;7.90;5.57;;;10.90;99.90;;;;;;5060591;28;20394;-81
2021/06/06 10:01:06;;;;;;;8.50;5.95;;;11.00;99.90;;;;;;5064619;28;20451;-81
2021/06/06 10:03:42;;;;;;;7.82;6.10;;;11.00;99.90;;;;;;5065682;28;20946;-81
2021/06/06 10:06:15;;;;;;;9.65;6.45;;;11.00;99.90;;;;;;5062393;28;20393;-81
2021/06/06 10:08:43;;;;;;;8.67;6.27;;;10.80;99.90;;;;;;5059512;28;20756;-81
2021/06/06 10:11:18;;;;;;;10.00;6.93;;;10.70;99.90;;;;;;5059442;28;20876;-81
2021/06/06 10:13:48;;;;;;;13.23;7.95;;;10.60;99.90;;;;;;5053917;28;20451;-81
2021/06/06 10:16:19;;;;;;;10.25;7.70;;;10.50;99.90;;;;;;5065457;28;20937;-81
2021/06/06 10:19:25;;;;;;;9.32;7.57;;;10.40;99.90;;;;;;5065096;28;20926;-81
2021/06/06 10:21:56;;;;;;;10.77;7.75;;;10.20;99.90;;;;;;5026903;28;20494;-81
2021/06/06 10:24:50;;;;;;;10.05;8.10;;;10.20;99.90;;;;;;5063415;28;20849;-82
2021/06/06 10:27:25;;;;;;;13.45;9.00;;;10.10;99.90;;;;;;5056902;28;20424;-82
2021/06/06 10:30:07;;;;;;;12.55;8.80;;;10.00;99.90;;;;;;5051626;28;20418;-81
2021/06/06 10:32:40;;;;;;;13.80;9.85;;;9.90;99.90;;;;;;5047156;28;20384;-81
2021/06/06 10:35:20;;;;;;;12.93;9.52;;;9.80;99.90;;;;;;5064445;28;21166;-81
2021/06/06 10:37:53;;;;;;;17.33;11.15;;;9.80;99.90;;;;;;5063917;28;20389;-81
2021/06/06 10:40:43;;;;;;;11.95;9.25;;;9.70;99.90;;;;;;5065602;28;20386;-81
2021/06/06 10:43:31;;;;;;;10.85;7.75;;;9.70;99.90;;;;;;5060395;28;20390;-81
2021/06/06 10:45:59;;;;;;;10.73;6.50;;;9.80;99.90;;;;;;5054856;28;20970;-81
2021/06/06 10:48:33;;;;;;;8.63;5.93;;;9.80;99.90;;;;;;5063929;28;20439;-81
2021/06/06 10:51:36;;;;;;;9.70;6.43;;;9.80;99.90;;;;;;5057412;28;20397;-81
2021/06/06 10:54:37;;;;;;;10.60;7.60;;;9.80;99.90;;;;;;5065764;28;20413;-82
2021/06/06 10:57:27;;;;;;;11.23;7.05;;;9.80;99.90;;;;;;5064691;28;20475;-82
2021/06/06 11:00:22;;;;;;;10.80;7.37;;;9.80;99.90;;;;;;5059179;28;20394;-82
2021/06/06 11:03:00;;;;;;;8.10;6.00;;;9.80;99.90;;;;;;5062299;28;20406;-82
2021/06/06 11:05:47;;;;;;;7.53;5.33;;;9.80;99.90;;;;;;5067864;28;20420;-82
2021/06/06 11:08:33;;;;;;;6.75;4.70;;;9.90;99.90;;;;;;5059850;28;20418;-82
2021/06/06 11:11:26;;;;;;;11.02;5.80;;;9.90;99.90;;;;;;5058605;28;20397;-81
2021/06/06 11:13:59;;;;;;;9.70;6.82;;;9.90;99.90;;;;;;5057701;28;20417;-82
2021/06/06 11:16:36;;;;;;;8.20;6.30;;;9.90;99.90;;;;;;5052451;28;20971;-82
2021/06/06 11:19:10;;;;;;;8.38;5.35;;;9.90;99.90;;;;;;5057449;28;20413;-82
2021/06/06 11:21:38;;;;;;;9.37;5.80;;;9.80;99.90;;;;;;5068339;28;20390;-82
2021/06/06 11:24:27;;;;;;;9.37;7.00;;;9.80;99.90;;;;;;5060940;28;20868;-82
2021/06/06 11:27:16;;;;;;;11.20;8.50;;;9.70;99.90;;;;;;5060146;28;20401;-82
2021/06/06 11:29:51;;;;;;;7.53;6.10;;;9.70;99.90;;;;;;5060063;28;20434;-82
2021/06/06 11:32:29;;;;;;;9.32;6.00;;;9.70;99.90;;;;;;5064263;28;20402;-82
2021/06/06 11:35:18;;;;;;;8.15;5.85;;;9.70;99.90;;;;;;5057328;28;20468;-81
2021/06/06 11:37:56;;;;;;;10.20;6.57;;;9.70;99.90;;;;;;5066301;28;20394;-82
2021/06/06 11:40:40;;;;;;;9.68;6.95;;;9.80;99.90;;;;;;5057895;28;20390;-82
2021/06/06 11:43:31;;;;;;;9.90;6.90;;;9.60;99.90;;;;;;5057359;28;20408;-82
2021/06/06 11:46:31;;;;;;;9.55;6.50;;;9.60;99.90;;;;;;5064174;28;20436;-82
2021/06/06 11:49:01;;;;;;;9.13;5.95;;;9.60;99.90;;;;;;5065570;28;20390;-83
2021/06/06 11:51:41;;;;;;;10.70;6.68;;;9.60;99.90;;;;;;5065859;28;20492;-82
2021/06/06 11:54:32;;;;;;;9.88;6.50;;;9.50;99.90;;;;;;5067322;28;20394;-82
2021/06/06 11:57:17;;;;;;;9.57;6.53;;;9.50;99.90;;;;;;5062113;28;20990;-82
2021/06/06 11:59:55;;;;;;;7.28;5.47;;;9.40;99.90;;;;;;5065624;28;20469;-82
2021/06/06 12:02:27;;;;;;;7.75;4.80;;;9.40;99.90;;;;;;5068137;28;20444;-82
2021/06/06 12:04:57;;;;;;;5.35;3.85;;;9.40;99.90;;;;;;5068877;28;20398;-82
2021/06/06 12:07:30;;;;;;;6.38;3.83;;;9.50;99.90;;;;;;5055287;28;20380;-82
2021/06/06 12:10:00;;;;;;;6.95;5.05;;;9.60;99.90;;;;;;5056927;28;20433;-82
2021/06/06 12:12:36;;;;;;;10.85;7.55;;;9.70;99.90;;;;;;5067457;28;20425;-82
2021/06/06 12:15:17;;;;;;;12.95;9.27;;;9.50;99.90;;;;;;5068092;28;20425;-82
2021/06/06 12:17:44;;;;;;;11.68;8.00;;;9.30;99.90;;;;;;5059340;28;20457;-82
2021/06/06 12:20:21;;;;;;;9.75;7.60;;;9.20;99.90;;;;;;5064084;28;20405;-82
2021/06/06 12:22:48;;;;;;;7.60;5.23;;;9.20;99.90;;;;;;5066212;28;20452;-82
2021/06/06 12:25:22;;;;;;;7.25;4.68;;;9.30;99.90;;;;;;5065368;28;20481;-81
2021/06/06 12:28:02;;;;;;;7.13;5.38;;;9.50;99.90;;;;;;5058982;28;20430;-81
2021/06/06 12:31:01;;;;;;;7.00;5.85;;;9.50;99.90;;;;;;5066602;28;20402;-81
2021/06/06 12:33:46;;;;;;;6.35;5.57;;;9.50;99.90;;;;;;4996902;28;20437;-81
2021/06/06 12:36:30;;;;;;;8.10;5.50;;;9.40;99.90;;;;;;5067998;28;20922;-81
2021/06/06 12:39:06;;;;;;;7.15;5.50;;;9.30;99.90;;;;;;5067218;28;20398;-82
2021/06/06 12:41:40;;;;;;;6.20;4.93;;;9.20;99.90;;;;;;5068264;28;20426;-82
2021/06/06 12:44:27;;;;;;;7.97;5.25;;;9.10;99.90;;;;;;5055823;28;20545;-82
2021/06/06 12:47:09;;;;;;;5.32;4.50;;;9.10;99.90;;;;;;5053727;28;20379;-82
2021/06/06 12:50:02;;;;;;;10.13;4.75;;;9.10;99.90;;;;;;5065902;28;20954;-82
2021/06/06 12:52:44;;;;;;;7.95;4.90;;;9.20;99.90;;;;;;5056735;28;21057;-82
2021/06/06 12:55:23;;;;;;;6.82;4.68;;;9.10;99.90;;;;;;5053621;28;20422;-82
2021/06/06 12:58:01;;;;;;;6.90;4.22;;;9.00;99.90;;;;;;5060225;28;20611;-82
2021/06/06 13:00:34;;;;;;;5.80;4.28;;;9.00;99.90;;;;;;5061046;28;21361;-82
2021/06/06 13:03:04;;;;;;;4.53;3.58;;;9.00;99.90;;;;;;5061610;28;20394;-82
2021/06/06 13:05:34;;;;;;;5.90;3.55;;;9.00;99.90;;;;;;5067332;28;20855;-82
2021/06/06 13:08:04;;;;;;;4.63;3.42;;;9.00;99.90;;;;;;5055706;28;20402;-82
2021/06/06 13:10:40;;;;;;;5.25;3.60;;;9.00;99.90;;;;;;5061378;28;20397;-82
2021/06/06 13:13:18;;;;;;;6.90;3.90;;;8.90;99.90;;;;;;5063672;28;20396;-82
2021/06/06 13:15:47;;;;;;;6.18;3.67;;;8.90;99.90;;;;;;5063300;28;20410;-81
2021/06/06 13:18:29;;;;;;;5.47;3.90;;;8.80;99.90;;;;;;5061720;28;21474;-81
2021/06/06 13:20:57;;;;;;;6.72;4.00;;;8.80;99.90;;;;;;5057604;28;20819;-81